sensor_id;sensor_type;location;lat;lon;timestamp;P1;durP1;ratioP1;P2;durP2;ratioP2
77078;SDS011;66004;55.096;38.760;2023-04-03T04:46:36;24.03;;;6.27;;
77078;SDS011;66004;55.096;38.760;2023-04-03T04:49:02;23.02;;;7.00;;
77078;SDS011;66004;55.096;38.760;2023-04-03T04:53:52;25.77;;;6.82;;
77078;SDS011;66004;55.096;38.760;2023-04-03T04:56:18;17.48;;;6.50;;
77078;SDS011;66004;55.096;38.760;2023-04-03T04:58:43;27.05;;;7.65;;
77078;SDS011;66004;55.096;38.760;2023-04-03T05:01:10;24.30;;;7.55;;
77078;SDS011;66004;55.096;38.760;2023-04-03T05:03:36;24.30;;;6.63;;
77078;SDS011;66004;55.096;38.760;2023-04-03T05:06:02;23.20;;;7.03;;
77078;SDS011;66004;55.096;38.760;2023-04-03T05:08:27;22.83;;;7.13;;
77078;SDS011;66004;55.096;38.760;2023-04-03T05:10:53;16.10;;;6.57;;
77078;SDS011;66004;55.096;38.760;2023-04-03T05:13:19;20.60;;;7.25;;
77078;SDS011;66004;55.096;38.760;2023-04-03T05:18:10;21.60;;;6.15;;
77078;SDS011;66004;55.096;38.760;2023-04-03T05:23:02;25.58;;;7.20;;
77078;SDS011;66004;55.096;38.760;2023-04-03T05:27:53;26.38;;;6.78;;
77078;SDS011;66004;55.096;38.760;2023-04-03T05:30:18;17.02;;;6.38;;
77078;SDS011;66004;55.096;38.760;2023-04-03T05:35:10;16.13;;;7.03;;
77078;SDS011;66004;55.096;38.760;2023-04-03T05:37:36;22.33;;;5.93;;
77078;SDS011;66004;55.096;38.760;2023-04-03T05:42:30;19.88;;;6.35;;
77078;SDS011;66004;55.096;38.760;2023-04-03T05:47:22;23.90;;;6.70;;
77078;SDS011;66004;55.096;38.760;2023-04-03T05:52:27;20.52;;;7.38;;
77078;SDS011;66004;55.096;38.760;2023-04-03T05:54:54;20.52;;;6.55;;
77078;SDS011;66004;55.096;38.760;2023-04-03T05:59:46;23.85;;;7.00;;
77078;SDS011;66004;55.096;38.760;2023-04-03T06:02:13;69.38;;;8.25;;
77078;SDS011;66004;55.096;38.760;2023-04-03T06:04:49;24.77;;;6.97;;
77078;SDS011;66004;55.096;38.760;2023-04-03T06:09:46;30.38;;;6.78;;
77078;SDS011;66004;55.096;38.760;2023-04-03T06:12:12;26.73;;;6.43;;
77078;SDS011;66004;55.096;38.760;2023-04-03T06:17:03;37.25;;;8.20;;
77078;SDS011;66004;55.096;38.760;2023-04-03T06:19:29;26.92;;;7.43;;
77078;SDS011;66004;55.096;38.760;2023-04-03T06:24:21;30.83;;;7.38;;
77078;SDS011;66004;55.096;38.760;2023-04-03T06:26:48;28.92;;;7.40;;
77078;SDS011;66004;55.096;38.760;2023-04-03T06:29:14;55.83;;;8.45;;
77078;SDS011;66004;55.096;38.760;2023-04-03T06:31:40;28.60;;;8.13;;
77078;SDS011;66004;55.096;38.760;2023-04-03T06:36:32;28.92;;;7.15;;
77078;SDS011;66004;55.096;38.760;2023-04-03T06:38:58;17.35;;;6.50;;
77078;SDS011;66004;55.096;38.760;2023-04-03T06:41:24;20.05;;;7.60;;
77078;SDS011;66004;55.096;38.760;2023-04-03T06:43:50;33.70;;;7.82;;
77078;SDS011;66004;55.096;38.760;2023-04-03T06:46:17;25.23;;;6.88;;
77078;SDS011;66004;55.096;38.760;2023-04-03T06:48:44;62.38;;;9.18;;
77078;SDS011;66004;55.096;38.760;2023-04-03T06:51:13;24.33;;;7.90;;
77078;SDS011;66004;55.096;38.760;2023-04-03T06:53:43;26.60;;;8.38;;
77078;SDS011;66004;55.096;38.760;2023-04-03T06:56:08;34.08;;;8.40;;
77078;SDS011;66004;55.096;38.760;2023-04-03T06:58:34;31.92;;;8.60;;
77078;SDS011;66004;55.096;38.760;2023-04-03T07:01:01;24.90;;;8.32;;
77078;SDS011;66004;55.096;38.760;2023-04-03T07:03:26;33.05;;;7.45;;
77078;SDS011;66004;55.096;38.760;2023-04-03T07:05:52;20.73;;;6.13;;
77078;SDS011;66004;55.096;38.760;2023-04-03T07:08:18;39.80;;;6.55;;
77078;SDS011;66004;55.096;38.760;2023-04-03T07:10:43;20.15;;;6.13;;
77078;SDS011;66004;55.096;38.760;2023-04-03T07:13:09;15.38;;;5.28;;
77078;SDS011;66004;55.096;38.760;2023-04-03T07:15:34;65.65;;;7.82;;
77078;SDS011;66004;55.096;38.760;2023-04-03T07:18:01;35.13;;;5.60;;
77078;SDS011;66004;55.096;38.760;2023-04-03T07:20:26;45.90;;;8.63;;
77078;SDS011;66004;55.096;38.760;2023-04-03T07:22:52;10.02;;;4.93;;
77078;SDS011;66004;55.096;38.760;2023-04-03T07:25:17;17.77;;;6.28;;
77078;SDS011;66004;55.096;38.760;2023-04-03T07:27:43;14.25;;;6.43;;
77078;SDS011;66004;55.096;38.760;2023-04-03T07:30:09;47.75;;;7.43;;
77078;SDS011;66004;55.096;38.760;2023-04-03T07:32:35;26.23;;;6.72;;
77078;SDS011;66004;55.096;38.760;2023-04-03T07:35:00;13.38;;;4.47;;
77078;SDS011;66004;55.096;38.760;2023-04-03T07:37:26;17.73;;;5.10;;
77078;SDS011;66004;55.096;38.760;2023-04-03T07:39:51;23.60;;;5.40;;
77078;SDS011;66004;55.096;38.760;2023-04-03T07:42:17;10.38;;;4.60;;
77078;SDS011;66004;55.096;38.760;2023-04-03T07:44:42;22.65;;;5.78;;
77078;SDS011;66004;55.096;38.760;2023-04-03T07:47:08;52.28;;;6.30;;
77078;SDS011;66004;55.096;38.760;2023-04-03T07:49:34;17.83;;;5.63;;
77078;SDS011;66004;55.096;38.760;2023-04-03T07:52:03;13.48;;;5.18;;
77078;SDS011;66004;55.096;38.760;2023-04-03T07:54:29;16.95;;;4.78;;
77078;SDS011;66004;55.096;38.760;2023-04-03T07:56:55;35.53;;;6.63;;
77078;SDS011;66004;55.096;38.760;2023-04-03T07:59:21;75.13;;;7.60;;
77078;SDS011;66004;55.096;38.760;2023-04-03T08:01:47;21.83;;;4.82;;
77078;SDS011;66004;55.096;38.760;2023-04-03T08:04:12;30.35;;;5.75;;
77078;SDS011;66004;55.096;38.760;2023-04-03T08:06:38;20.42;;;5.47;;
77078;SDS011;66004;55.096;38.760;2023-04-03T08:09:03;21.05;;;4.85;;
77078;SDS011;66004;55.096;38.760;2023-04-03T08:11:29;21.73;;;5.63;;
77078;SDS011;66004;55.096;38.760;2023-04-03T08:13:56;26.55;;;5.55;;
77078;SDS011;66004;55.096;38.760;2023-04-03T08:16:22;23.65;;;5.50;;
77078;SDS011;66004;55.096;38.760;2023-04-03T08:18:51;26.77;;;5.57;;
77078;SDS011;66004;55.096;38.760;2023-04-03T08:21:17;34.08;;;11.35;;
77078;SDS011;66004;55.096;38.760;2023-04-03T08:23:43;34.22;;;10.70;;
77078;SDS011;66004;55.096;38.760;2023-04-03T08:26:09;29.17;;;9.18;;
77078;SDS011;66004;55.096;38.760;2023-04-03T08:28:37;23.40;;;7.03;;
77078;SDS011;66004;55.096;38.760;2023-04-03T08:31:06;19.63;;;6.13;;
77078;SDS011;66004;55.096;38.760;2023-04-03T08:33:36;32.17;;;6.88;;
77078;SDS011;66004;55.096;38.760;2023-04-03T08:36:05;27.55;;;7.55;;
77078;SDS011;66004;55.096;38.760;2023-04-03T08:38:32;42.20;;;10.43;;
77078;SDS011;66004;55.096;38.760;2023-04-03T08:41:13;29.58;;;8.40;;
77078;SDS011;66004;55.096;38.760;2023-04-03T08:46:55;21.13;;;7.53;;
77078;SDS011;66004;55.096;38.760;2023-04-03T13:26:56;9.43;;;2.87;;
77078;SDS011;66004;55.096;38.760;2023-04-03T13:29:26;8.55;;;2.95;;
77078;SDS011;66004;55.096;38.760;2023-04-03T13:31:54;7.95;;;2.45;;
77078;SDS011;66004;55.096;38.760;2023-04-03T13:34:22;11.63;;;2.97;;
77078;SDS011;66004;55.096;38.760;2023-04-03T13:41:45;10.35;;;3.67;;
77078;SDS011;66004;55.096;38.760;2023-04-03T13:46:47;12.07;;;4.20;;
77078;SDS011;66004;55.096;38.760;2023-04-03T13:49:17;13.18;;;4.95;;
77078;SDS011;66004;55.096;38.760;2023-04-03T13:51:48;22.23;;;4.78;;
77078;SDS011;66004;55.096;38.760;2023-04-03T13:54:22;15.95;;;5.40;;
77078;SDS011;66004;55.096;38.760;2023-04-03T13:56:53;27.48;;;5.15;;
77078;SDS011;66004;55.096;38.760;2023-04-03T13:59:27;19.35;;;3.72;;
77078;SDS011;66004;55.096;38.760;2023-04-03T14:07:09;11.90;;;3.00;;
77078;SDS011;66004;55.096;38.760;2023-04-03T14:09:35;14.05;;;4.10;;
77078;SDS011;66004;55.096;38.760;2023-04-03T14:12:35;9.80;;;3.70;;
77078;SDS011;66004;55.096;38.760;2023-04-03T14:14:56;18.65;;;4.85;;
77078;SDS011;66004;55.096;38.760;2023-04-03T14:17:23;23.95;;;3.72;;
77078;SDS011;66004;55.096;38.760;2023-04-03T14:19:52;11.32;;;3.20;;
77078;SDS011;66004;55.096;38.760;2023-04-03T14:22:20;15.55;;;2.97;;
77078;SDS011;66004;55.096;38.760;2023-04-03T14:24:48;14.10;;;3.28;;
77078;SDS011;66004;55.096;38.760;2023-04-03T14:27:18;11.10;;;2.60;;
77078;SDS011;66004;55.096;38.760;2023-04-03T14:29:48;17.45;;;3.65;;
77078;SDS011;66004;55.096;38.760;2023-04-03T14:32:17;18.65;;;3.28;;
77078;SDS011;66004;55.096;38.760;2023-04-03T14:34:43;18.60;;;3.30;;
77078;SDS011;66004;55.096;38.760;2023-04-03T14:37:14;11.43;;;3.60;;
77078;SDS011;66004;55.096;38.760;2023-04-03T14:39:43;9.07;;;3.20;;
77078;SDS011;66004;55.096;38.760;2023-04-03T14:42:11;13.45;;;3.60;;
77078;SDS011;66004;55.096;38.760;2023-04-03T14:44:42;26.58;;;3.80;;
77078;SDS011;66004;55.096;38.760;2023-04-03T14:47:15;19.33;;;3.35;;
77078;SDS011;66004;55.096;38.760;2023-04-03T18:48:09;8.65;;;4.80;;
77078;SDS011;66004;55.096;38.760;2023-04-03T18:50:35;8.00;;;4.25;;
77078;SDS011;66004;55.096;38.760;2023-04-03T18:53:00;8.00;;;4.45;;
77078;SDS011;66004;55.096;38.760;2023-04-03T18:57:51;8.27;;;4.03;;
77078;SDS011;66004;55.096;38.760;2023-04-03T19:00:17;10.35;;;4.95;;
77078;SDS011;66004;55.096;38.760;2023-04-03T19:02:43;9.38;;;4.85;;
77078;SDS011;66004;55.096;38.760;2023-04-03T19:05:10;12.50;;;5.63;;
77078;SDS011;66004;55.096;38.760;2023-04-03T19:07:39;9.20;;;5.38;;
77078;SDS011;66004;55.096;38.760;2023-04-03T19:10:06;13.55;;;6.35;;
77078;SDS011;66004;55.096;38.760;2023-04-03T19:12:32;14.57;;;7.22;;
77078;SDS011;66004;55.096;38.760;2023-04-03T19:14:59;16.38;;;6.93;;
77078;SDS011;66004;55.096;38.760;2023-04-03T19:19:52;14.20;;;6.95;;
77078;SDS011;66004;55.096;38.760;2023-04-03T19:24:43;11.63;;;6.00;;
77078;SDS011;66004;55.096;38.760;2023-04-03T19:29:34;14.55;;;7.18;;
77078;SDS011;66004;55.096;38.760;2023-04-03T19:32:00;12.15;;;5.97;;
77078;SDS011;66004;55.096;38.760;2023-04-03T19:34:25;16.60;;;7.07;;
77078;SDS011;66004;55.096;38.760;2023-04-03T19:39:16;9.93;;;5.03;;
77078;SDS011;66004;55.096;38.760;2023-04-03T19:44:10;11.23;;;5.15;;
77078;SDS011;66004;55.096;38.760;2023-04-03T19:49:01;13.25;;;5.35;;
77078;SDS011;66004;55.096;38.760;2023-04-03T19:51:26;11.77;;;4.57;;
77078;SDS011;66004;55.096;38.760;2023-04-03T19:53:52;10.57;;;4.97;;
77078;SDS011;66004;55.096;38.760;2023-04-03T19:58:45;11.45;;;5.70;;
77078;SDS011;66004;55.096;38.760;2023-04-03T20:01:17;11.20;;;5.95;;
77078;SDS011;66004;55.096;38.760;2023-04-03T20:03:43;10.90;;;6.22;;
77078;SDS011;66004;55.096;38.760;2023-04-03T20:06:10;10.93;;;5.47;;
77078;SDS011;66004;55.096;38.760;2023-04-03T20:11:01;11.77;;;5.38;;
77078;SDS011;66004;55.096;38.760;2023-04-03T20:15:52;8.88;;;5.13;;
77078;SDS011;66004;55.096;38.760;2023-04-03T20:20:44;12.55;;;6.38;;
77078;SDS011;66004;55.096;38.760;2023-04-03T20:23:17;10.55;;;6.18;;
77078;SDS011;66004;55.096;38.760;2023-04-03T20:28:10;29.20;;;12.80;;
77078;SDS011;66004;55.096;38.760;2023-04-03T20:30:37;30.15;;;14.10;;
77078;SDS011;66004;55.096;38.760;2023-04-03T20:33:04;32.80;;;14.10;;
77078;SDS011;66004;55.096;38.760;2023-04-03T20:37:56;35.30;;;14.52;;
77078;SDS011;66004;55.096;38.760;2023-04-03T20:40:22;31.00;;;14.13;;
77078;SDS011;66004;55.096;38.760;2023-04-03T20:45:15;21.48;;;10.57;;
77078;SDS011;66004;55.096;38.760;2023-04-03T20:47:42;21.27;;;9.73;;
